Terminal Aerodrome Forecast
Issued by NWS

Home | Current Version | Previous Version | Text Only | Print | Product List | Glossary Off
Versions: 1 2 3 4 5 6 7 8 9 10 11 12 13

000
FTUS43 KICT 271100
TAFCNU
TAF
KCNU 271121Z 2712/2812 13005KT 5SM BR SKC
     FM271400 16009KT P6SM SKC
     FM280100 12005KT P6SM SKC=

USA.gov is the U.S. government's official web portal to all federal, state and local government web resources and services.